createdAt,value
2023-04-28T00:05:01.280Z,2.80
2023-04-28T00:09:54.464Z,2.70
2023-04-28T00:14:42.256Z,2.70
2023-04-28T00:19:30.386Z,2.70
2023-04-28T00:24:26.521Z,2.60
2023-04-28T00:29:21.123Z,2.50
2023-04-28T00:34:07.970Z,2.30
2023-04-28T00:39:11.725Z,2.20
2023-04-28T00:44:00.820Z,2.40
2023-04-28T00:48:47.264Z,2.40
2023-04-28T00:53:38.050Z,2.60
2023-04-28T00:58:23.932Z,2.70
2023-04-28T01:03:43.558Z,2.80
2023-04-28T01:08:50.344Z,2.80
2023-04-28T01:13:35.806Z,3.10
2023-04-28T01:18:30.203Z,3.20
2023-04-28T01:29:32.871Z,3.40
2023-04-28T01:34:28.330Z,3.30
2023-04-28T01:40:34.950Z,3.30
2023-04-28T01:45:25.506Z,3.20
2023-04-28T01:50:27.480Z,3.30
2023-04-28T01:55:11.933Z,3.30
2023-04-28T02:06:09.771Z,3.40
2023-04-28T02:11:00.016Z,3.50
2023-04-28T02:22:08.467Z,3.70
2023-04-28T02:27:14.791Z,3.80
2023-04-28T02:33:58.211Z,3.80
2023-04-28T02:39:02.097Z,3.80
2023-04-28T02:43:46.073Z,4.00
2023-04-28T02:48:47.270Z,4.10
2023-04-28T02:53:56.210Z,4.30
2023-04-28T02:59:34.357Z,4.40
2023-04-28T03:05:37.293Z,4.50
2023-04-28T03:10:46.251Z,4.50
2023-04-28T03:16:19.680Z,4.50
2023-04-28T03:31:17.267Z,4.30
2023-04-28T03:42:02.882Z,4.10
2023-04-28T03:47:32.740Z,4.10
2023-04-28T03:58:09.176Z,4.20
2023-04-28T04:09:07.079Z,4.40
2023-04-28T04:20:01.406Z,4.60
2023-04-28T04:24:52.742Z,4.80
2023-04-28T04:30:05.721Z,4.90
2023-04-28T04:35:17.016Z,5.00
2023-04-28T04:40:36.997Z,5.10
2023-04-28T04:50:40.339Z,5.30
2023-04-28T04:55:33.303Z,5.50
2023-04-28T05:07:13.631Z,5.60
2023-04-28T05:17:51.699Z,5.80
2023-04-28T05:23:15.606Z,6.00
2023-04-28T05:33:22.643Z,6.30
2023-04-28T05:38:43.770Z,6.60
2023-04-28T05:43:29.193Z,7.00
2023-04-28T05:55:27.137Z,7.50
2023-04-28T06:06:13.120Z,8.10
2023-04-28T06:11:29.035Z,8.70
2023-04-28T06:16:15.735Z,9.40
2023-04-28T06:22:07.497Z,10.00
2023-04-28T06:26:57.879Z,10.20
2023-04-28T06:31:45.971Z,10.30
2023-04-28T06:49:35.591Z,11.10
2023-04-28T06:54:41.834Z,11.20
2023-04-28T06:59:28.237Z,11.30
2023-04-28T07:04:15.577Z,11.30
2023-04-28T07:09:05.966Z,11.50
2023-04-28T07:13:52.637Z,12.00
2023-04-28T07:19:13.052Z,12.40
2023-04-28T07:24:19.847Z,13.00
2023-04-28T07:29:03.799Z,13.30
2023-04-28T07:33:54.248Z,13.60
2023-04-28T07:38:41.068Z,14.00
2023-04-28T07:50:40.458Z,15.20
2023-04-28T07:55:49.849Z,15.60
2023-04-28T08:01:04.960Z,16.00
2023-04-28T08:11:44.780Z,16.40
2023-04-28T08:22:10.644Z,16.60
2023-04-28T08:33:39.145Z,17.80
2023-04-28T08:39:00.750Z,17.60
2023-04-28T09:02:10.463Z,17.20
2023-04-28T09:14:29.615Z,17.60
2023-04-28T09:26:11.772Z,18.80
2023-04-28T09:30:56.650Z,18.30
2023-04-28T10:00:00.572Z,18.20
2023-04-28T10:04:50.912Z,16.90
2023-04-28T10:09:36.539Z,16.00
2023-04-28T10:14:58.284Z,15.60
2023-04-28T10:25:39.218Z,14.80
2023-04-28T10:43:27.748Z,13.50
2023-04-28T10:49:05.267Z,13.20
2023-04-28T11:13:54.494Z,12.50
2023-04-28T11:19:15.897Z,12.70
2023-04-28T11:24:17.308Z,12.70
2023-04-28T11:29:03.263Z,12.50
2023-04-28T11:34:07.185Z,12.40
2023-04-28T11:39:00.682Z,12.40
2023-04-28T11:43:47.341Z,12.70
2023-04-28T11:48:34.286Z,12.90
2023-04-28T11:53:23.838Z,13.40
2023-04-28T12:03:50.126Z,14.10
2023-04-28T12:08:38.478Z,14.40
2023-04-28T12:41:56.965Z,15.40
2023-04-28T12:46:41.645Z,14.80
2023-04-28T12:51:29.814Z,14.10
2023-04-28T13:18:27.026Z,14.10
2023-04-28T13:24:01.158Z,13.60
2023-04-28T13:34:23.146Z,14.00
2023-04-28T14:02:09.038Z,13.40
2023-04-28T14:07:27.568Z,13.10
2023-04-28T14:58:57.036Z,14.30
2023-04-28T15:15:31.327Z,14.50
2023-04-28T15:20:49.960Z,14.80
2023-04-28T15:25:40.175Z,14.70
2023-04-28T15:30:23.972Z,14.40
2023-04-28T15:35:27.415Z,14.50
2023-04-28T15:40:19.778Z,14.30
2023-04-28T15:45:05.319Z,14.00
2023-04-28T15:49:53.215Z,13.70
2023-04-28T15:54:43.410Z,13.40
2023-04-28T15:59:27.898Z,13.30
2023-04-28T16:04:20.827Z,12.90
2023-04-28T16:09:07.711Z,12.80
2023-04-28T16:13:52.659Z,12.80
2023-04-28T16:19:17.378Z,12.70
2023-04-28T16:24:06.296Z,12.60
2023-04-28T16:28:49.995Z,12.20
2023-04-28T16:39:45.240Z,11.80
2023-04-28T16:51:02.172Z,11.80
2023-04-28T16:57:07.204Z,11.70
2023-04-28T17:02:59.313Z,11.70
2023-04-28T17:08:28.961Z,11.80
2023-04-28T17:19:12.579Z,11.90
2023-04-28T17:24:18.596Z,11.50
2023-04-28T17:29:07.276Z,11.50
2023-04-28T17:34:21.359Z,11.40
2023-04-28T17:39:10.986Z,11.40
2023-04-28T17:44:00.723Z,11.30
2023-04-28T17:48:47.677Z,11.30
2023-04-28T17:53:35.931Z,11.30
2023-04-28T17:58:24.710Z,11.10
2023-04-28T18:03:15.661Z,11.00
2023-04-28T18:08:14.201Z,11.00
2023-04-28T18:13:07.164Z,11.10
2023-04-28T18:18:07.116Z,11.10
2023-04-28T18:22:56.569Z,11.00
2023-04-28T18:27:48.300Z,11.00
2023-04-28T18:32:34.049Z,11.00
2023-04-28T18:37:23.115Z,11.00
2023-04-28T18:42:08.439Z,11.00
2023-04-28T18:47:02.033Z,10.80
2023-04-28T18:52:22.598Z,10.90
2023-04-28T18:57:09.250Z,10.90
2023-04-28T19:01:58.373Z,10.80
2023-04-28T19:06:55.321Z,10.70
2023-04-28T19:11:59.573Z,10.70
2023-04-28T19:16:51.807Z,10.70
2023-04-28T19:21:52.325Z,10.60
2023-04-28T19:27:01.283Z,10.70
2023-04-28T19:31:45.184Z,10.60
2023-04-28T19:36:34.794Z,10.60
2023-04-28T19:41:22.287Z,10.70
2023-04-28T19:46:14.100Z,10.60
2023-04-28T19:50:58.022Z,10.60
2023-04-28T19:55:43.816Z,10.70
2023-04-28T20:00:33.802Z,10.70
2023-04-28T20:05:22.380Z,10.70
2023-04-28T20:10:09.643Z,10.70
2023-04-28T20:14:58.348Z,10.60
2023-04-28T20:19:44.723Z,10.60
2023-04-28T20:24:36.088Z,10.60
2023-04-28T20:29:19.898Z,10.60
2023-04-28T20:34:10.424Z,10.60
2023-04-28T20:38:57.032Z,10.50
2023-04-28T20:43:59.136Z,10.20
2023-04-28T20:48:47.125Z,10.00
2023-04-28T20:53:40.938Z,9.70
2023-04-28T20:58:24.640Z,9.40
2023-04-28T21:03:15.664Z,9.20
2023-04-28T21:08:01.499Z,9.00
2023-04-28T21:12:47.127Z,9.30
2023-04-28T21:17:35.563Z,9.50
2023-04-28T21:22:39.463Z,9.60
2023-04-28T21:27:29.816Z,9.50
2023-04-28T21:32:15.564Z,9.40
2023-04-28T21:37:04.874Z,9.30
2023-04-28T21:42:38.602Z,9.30
2023-04-28T21:47:45.925Z,9.30
2023-04-28T21:52:38.570Z,9.30
2023-04-28T21:58:09.540Z,9.40
2023-04-28T22:02:59.554Z,9.50
2023-04-28T22:07:43.646Z,9.60
2023-04-28T22:12:32.191Z,9.70
2023-04-28T22:17:22.396Z,9.70
2023-04-28T22:22:26.658Z,9.80
2023-04-28T22:27:13.313Z,9.80
2023-04-28T22:32:00.032Z,9.90
2023-04-28T22:37:06.686Z,9.90
2023-04-28T22:41:54.272Z,9.80
2023-04-28T22:46:41.096Z,9.80
2023-04-28T22:51:29.003Z,9.80
2023-04-28T22:56:15.880Z,9.80
2023-04-28T23:01:24.493Z,9.70
2023-04-28T23:06:07.990Z,9.60
2023-04-28T23:10:57.603Z,9.70
2023-04-28T23:15:45.397Z,9.60
2023-04-28T23:20:53.964Z,9.50
2023-04-28T23:25:37.774Z,9.50
2023-04-28T23:30:24.205Z,9.30
2023-04-28T23:35:17.035Z,9.20
2023-04-28T23:40:02.496Z,9.00
2023-04-28T23:44:47.378Z,8.80
2023-04-28T23:49:35.648Z,8.70
2023-04-28T23:54:28.200Z,8.60
